createdAt,value
2018-02-24T00:00:37.594Z,93879.42
2018-02-24T00:03:05.267Z,93883.16
2018-02-24T00:05:32.999Z,93883.55
2018-02-24T00:08:01.291Z,93882.03
2018-02-24T00:10:30.259Z,93886.02
2018-02-24T00:13:00.050Z,93883.63
2018-02-24T00:15:28.951Z,93891.12
2018-02-24T00:17:56.806Z,93892.63
2018-02-24T00:20:24.922Z,93884.77
2018-02-24T00:22:52.964Z,93885.80
2018-02-24T00:25:20.835Z,93887.78
2018-02-24T00:27:48.770Z,93883.56
2018-02-24T00:30:16.799Z,93885.78
2018-02-24T00:32:44.853Z,93890.33
2018-02-24T00:35:12.842Z,93892.39
2018-02-24T00:37:40.912Z,93896.46
2018-02-24T00:40:08.734Z,93900.61
2018-02-24T00:42:36.448Z,93898.55
2018-02-24T00:45:04.412Z,93899.02
2018-02-24T00:47:32.360Z,93893.83
2018-02-24T00:50:01.747Z,93900.53
2018-02-24T00:52:29.855Z,93899.40
2018-02-24T00:54:57.926Z,93896.63
2018-02-24T00:57:26.000Z,93900.05
2018-02-24T00:59:53.942Z,93903.94
2018-02-24T01:02:22.032Z,93906.66
2018-02-24T01:04:50.112Z,93901.33
2018-02-24T01:07:17.865Z,93906.23
2018-02-24T01:09:45.934Z,93904.25
2018-02-24T01:12:14.602Z,93899.62
2018-02-24T01:14:42.430Z,93897.08
2018-02-24T01:17:10.460Z,93902.66
2018-02-24T01:19:38.543Z,93896.44
2018-02-24T01:22:06.517Z,93902.13
2018-02-24T01:24:34.380Z,93899.61
2018-02-24T01:27:02.360Z,93893.73
2018-02-24T01:29:30.420Z,93897.17
2018-02-24T01:31:58.434Z,93896.08
2018-02-24T01:34:26.106Z,93895.75
2018-02-24T01:36:53.906Z,93894.55
2018-02-24T01:39:21.583Z,93898.77
2018-02-24T01:41:49.585Z,93898.70
2018-02-24T01:44:17.520Z,93896.53
2018-02-24T01:46:45.415Z,93901.70
2018-02-24T01:49:13.406Z,93903.30
2018-02-24T01:51:41.301Z,93903.25
2018-02-24T01:54:09.496Z,93909.50
2018-02-24T01:56:37.510Z,93906.78
2018-02-24T01:59:05.264Z,93907.83
2018-02-24T02:01:33.051Z,93906.61
2018-02-24T02:04:01.119Z,93913.27
2018-02-24T02:06:28.837Z,93911.70
2018-02-24T02:08:56.600Z,93914.28
2018-02-24T02:11:24.339Z,93904.63
2018-02-24T02:13:52.202Z,93902.48
2018-02-24T02:16:20.116Z,93906.70
2018-02-24T02:18:48.986Z,93899.94
2018-02-24T02:21:16.971Z,93900.81
2018-02-24T02:23:44.964Z,93904.31
2018-02-24T02:26:13.103Z,93910.20
2018-02-24T02:28:40.977Z,93910.08
2018-02-24T02:31:09.099Z,93912.95
2018-02-24T02:33:37.126Z,93911.81
2018-02-24T02:36:05.179Z,93913.73
2018-02-24T02:38:33.120Z,93916.44
2018-02-24T02:41:00.983Z,93918.02
2018-02-24T02:43:28.851Z,93917.44
2018-02-24T02:45:56.771Z,93913.73
2018-02-24T02:48:24.828Z,93923.36
2018-02-24T02:50:52.798Z,93914.44
2018-02-24T02:53:20.870Z,93917.25
2018-02-24T02:55:49.938Z,93918.13
2018-02-24T02:58:18.772Z,93912.49
2018-02-24T03:00:46.695Z,93907.72
2018-02-24T03:03:14.369Z,93906.46
2018-02-24T03:05:42.121Z,93906.95
2018-02-24T03:08:09.830Z,93906.41
2018-02-24T03:10:37.583Z,93903.53
2018-02-24T03:13:05.306Z,93909.16
2018-02-24T03:15:32.990Z,93904.84
2018-02-24T03:18:01.076Z,93909.87
2018-02-24T03:20:28.903Z,93908.08
2018-02-24T03:22:56.797Z,93912.44
2018-02-24T03:25:24.894Z,93907.40
2018-02-24T03:27:52.853Z,93910.73
2018-02-24T03:30:20.726Z,93908.33
2018-02-24T03:32:48.891Z,93908.16
2018-02-24T03:35:16.885Z,93918.25
2018-02-24T03:37:44.829Z,93919.24
2018-02-24T03:40:12.561Z,93918.75
2018-02-24T03:42:40.434Z,93921.16
2018-02-24T03:45:08.277Z,93924.20
2018-02-24T03:47:36.144Z,93922.56
2018-02-24T03:50:04.984Z,93928.78
2018-02-24T03:52:33.046Z,93926.08
2018-02-24T03:55:00.939Z,93927.64
2018-02-24T03:57:28.858Z,93935.16
2018-02-24T03:59:57.784Z,93937.72
2018-02-24T04:02:25.841Z,93943.56
2018-02-24T04:04:53.572Z,93947.28
2018-02-24T04:07:21.528Z,93943.53
2018-02-24T04:09:49.560Z,93940.75
2018-02-24T04:12:17.297Z,93940.14
2018-02-24T04:14:45.396Z,93939.21
2018-02-24T04:17:13.218Z,93937.77
2018-02-24T04:19:41.136Z,93940.66
2018-02-24T04:22:09.714Z,93946.98
2018-02-24T04:24:37.648Z,93940.80
2018-02-24T04:27:05.512Z,93947.48
2018-02-24T04:29:33.521Z,93947.81
2018-02-24T04:32:02.370Z,93949.23
2018-02-24T04:34:30.138Z,93957.02
2018-02-24T04:36:57.947Z,93958.23
2018-02-24T04:39:25.925Z,93960.52
2018-02-24T04:41:54.801Z,93955.88
2018-02-24T04:44:22.803Z,93965.44
2018-02-24T04:46:50.699Z,93964.05
2018-02-24T04:49:18.664Z,93967.51
2018-02-24T04:51:46.609Z,93965.11
2018-02-24T04:54:15.411Z,93971.18
2018-02-24T04:56:43.989Z,93970.42
2018-02-24T04:59:11.982Z,93973.25
2018-02-24T05:01:39.847Z,93972.97
2018-02-24T05:04:07.570Z,93973.97
2018-02-24T05:06:35.570Z,93976.05
2018-02-24T05:09:03.504Z,93976.80
2018-02-24T05:11:31.591Z,93978.49
2018-02-24T05:13:59.582Z,93977.20
2018-02-24T05:16:27.703Z,93976.12
2018-02-24T05:18:55.879Z,93979.41
2018-02-24T05:21:24.564Z,93976.38
2018-02-24T05:23:52.661Z,93976.20
2018-02-24T05:26:20.723Z,93974.57
2018-02-24T05:28:48.421Z,93972.92
2018-02-24T05:31:16.547Z,93974.55
2018-02-24T05:33:44.415Z,93975.85
2018-02-24T05:36:12.190Z,93975.40
2018-02-24T05:38:40.174Z,93970.63
2018-02-24T05:41:08.291Z,93971.20
2018-02-24T05:43:36.260Z,93962.58
2018-02-24T05:46:04.363Z,93961.09
2018-02-24T05:48:32.198Z,93965.45
2018-02-24T05:50:59.920Z,93959.91
2018-02-24T05:53:27.951Z,93960.80
2018-02-24T05:55:55.920Z,93956.41
2018-02-24T05:58:23.787Z,93951.66
2018-02-24T06:00:51.676Z,93946.74
2018-02-24T06:03:19.692Z,93959.95
2018-02-24T06:05:47.687Z,93963.73
2018-02-24T06:08:15.582Z,93964.88
2018-02-24T06:10:43.464Z,93978.44
2018-02-24T06:13:11.609Z,93979.41
2018-02-24T06:15:39.664Z,93975.17
2018-02-24T06:18:07.781Z,93982.78
2018-02-24T06:20:35.935Z,93989.73
2018-02-24T06:23:05.030Z,93990.93
2018-02-24T06:25:32.969Z,93990.54
2018-02-24T06:28:00.971Z,93996.70
2018-02-24T06:30:28.854Z,93996.40
2018-02-24T06:32:56.829Z,94002.36
2018-02-24T06:35:24.931Z,94008.20
2018-02-24T06:37:52.792Z,94005.33
2018-02-24T06:40:21.154Z,94010.93
2018-02-24T06:42:49.245Z,94009.20
2018-02-24T06:45:17.853Z,94009.79
2018-02-24T06:47:45.957Z,94013.13
2018-02-24T06:50:13.987Z,94017.98
2018-02-24T06:52:41.854Z,94008.20
2018-02-24T06:55:10.271Z,94013.80
2018-02-24T06:57:38.484Z,94011.83
2018-02-24T07:00:06.608Z,94016.43
2018-02-24T07:02:34.691Z,94011.38
2018-02-24T07:05:02.690Z,94010.93
2018-02-24T07:07:30.837Z,94016.66
2018-02-24T07:09:59.804Z,94016.75
2018-02-24T07:12:27.608Z,94017.48
2018-02-24T07:14:55.603Z,94024.05
2018-02-24T07:17:23.577Z,94031.64
2018-02-24T07:19:51.428Z,94029.56
2018-02-24T07:22:19.525Z,94033.13
2018-02-24T07:24:47.761Z,94036.82
2018-02-24T07:27:16.615Z,94027.07
2018-02-24T07:29:44.588Z,94028.84
2018-02-24T07:32:12.578Z,94026.02
2018-02-24T07:34:40.460Z,94024.59
2018-02-24T07:37:08.385Z,94032.86
2018-02-24T07:39:36.685Z,94028.28
2018-02-24T07:42:04.568Z,94035.80
2018-02-24T07:44:32.446Z,94036.08
2018-02-24T07:47:01.017Z,94031.73
2018-02-24T07:49:29.510Z,94035.97
2018-02-24T07:51:58.796Z,94042.69
2018-02-24T07:54:26.972Z,94044.21
2018-02-24T07:56:54.848Z,94046.19
2018-02-24T07:59:22.984Z,94045.11
2018-02-24T08:01:50.852Z,94048.05
2018-02-24T08:04:18.792Z,94048.56
2018-02-24T08:06:47.521Z,94054.29
2018-02-24T08:09:15.607Z,94053.27
2018-02-24T08:11:43.574Z,94052.73
2018-02-24T08:14:11.512Z,94051.88
2018-02-24T08:16:39.355Z,94056.52
2018-02-24T08:19:08.303Z,94053.96
2018-02-24T08:21:37.009Z,94054.82
2018-02-24T08:24:05.030Z,94057.36
2018-02-24T08:26:32.954Z,94054.37
2018-02-24T08:29:00.987Z,94059.75
2018-02-24T08:31:29.057Z,94051.48
2018-02-24T08:33:57.040Z,94057.58
2018-02-24T08:36:25.712Z,94054.88
2018-02-24T08:38:53.803Z,94049.88
2018-02-24T08:41:21.887Z,94050.88
2018-02-24T08:43:50.555Z,94056.34
2018-02-24T08:46:18.628Z,94052.58
2018-02-24T08:48:47.497Z,94052.55
2018-02-24T08:51:15.591Z,94055.82
2018-02-24T08:53:43.484Z,94059.62
2018-02-24T08:56:11.947Z,94060.80
2018-02-24T08:58:39.723Z,94063.43
2018-02-24T09:01:07.449Z,94063.51
2018-02-24T09:03:35.329Z,94068.65
2018-02-24T09:06:03.136Z,94068.95
2018-02-24T09:08:30.830Z,94072.48
2018-02-24T09:10:58.611Z,94069.87
2018-02-24T09:13:26.446Z,94069.89
2018-02-24T09:15:54.289Z,94072.10
2018-02-24T09:18:22.091Z,94080.05
2018-02-24T09:20:49.904Z,94076.37
2018-02-24T09:23:17.654Z,94070.57
2018-02-24T09:25:46.470Z,94067.95
2018-02-24T09:28:14.211Z,94074.73
2018-02-24T09:30:42.026Z,94070.45
2018-02-24T09:33:09.852Z,94070.21
2018-02-24T09:35:37.590Z,94072.70
2018-02-24T09:38:05.355Z,94076.84
2018-02-24T09:40:33.127Z,94079.97
2018-02-24T09:43:00.908Z,94082.02
2018-02-24T09:45:30.192Z,94080.67
2018-02-24T09:47:57.945Z,94080.99
2018-02-24T09:50:25.833Z,94083.94
2018-02-24T09:52:53.606Z,94087.23
2018-02-24T09:55:21.315Z,94088.43
2018-02-24T09:57:49.076Z,94089.75
2018-02-24T10:00:16.819Z,94089.67
2018-02-24T10:02:44.587Z,94090.33
2018-02-24T10:05:12.435Z,94087.51
2018-02-24T10:07:40.529Z,94095.89
2018-02-24T10:10:08.598Z,94089.67
2018-02-24T10:12:36.764Z,94089.28
2018-02-24T10:15:05.216Z,94081.92
2018-02-24T10:17:34.053Z,94087.79
2018-02-24T10:20:01.775Z,94091.55
2018-02-24T10:22:29.796Z,94084.03
2018-02-24T10:24:57.751Z,94072.82
2018-02-24T10:27:25.450Z,94080.52
2018-02-24T10:29:54.275Z,94073.53
2018-02-24T10:32:22.033Z,94074.95
2018-02-24T10:34:49.776Z,94066.02
2018-02-24T10:37:17.529Z,94059.28
2018-02-24T10:39:45.307Z,94061.87
2018-02-24T10:42:13.096Z,94052.05
2018-02-24T10:44:40.780Z,94057.72
2018-02-24T10:47:08.825Z,94052.06
2018-02-24T10:49:36.555Z,94056.19
2018-02-24T10:52:04.267Z,94045.50
2018-02-24T10:54:32.048Z,94046.66
2018-02-24T10:56:59.786Z,94040.41
2018-02-24T10:59:27.550Z,94037.20
2018-02-24T11:01:55.343Z,94035.09
2018-02-24T11:04:23.065Z,94021.44
2018-02-24T11:06:50.844Z,94023.76
2018-02-24T11:09:18.629Z,94022.84
2018-02-24T11:11:46.429Z,94010.67
2018-02-24T11:14:14.400Z,94015.42
2018-02-24T11:16:42.245Z,94007.68
2018-02-24T11:19:12.256Z,94007.01
2018-02-24T11:21:40.156Z,94003.81
2018-02-24T11:24:08.121Z,93992.93
2018-02-24T11:26:35.990Z,93996.52
2018-02-24T11:29:04.134Z,93991.42
2018-02-24T11:31:33.268Z,93992.23
2018-02-24T11:34:01.109Z,93995.02
2018-02-24T11:36:28.861Z,93986.59
2018-02-24T11:38:57.603Z,93981.89
2018-02-24T11:41:25.389Z,93981.98
2018-02-24T11:43:53.210Z,93971.23
2018-02-24T11:46:21.021Z,93976.09
2018-02-24T11:48:50.056Z,93969.38
2018-02-24T11:51:18.060Z,93974.17
2018-02-24T11:53:46.665Z,93974.53
2018-02-24T11:56:15.221Z,93983.50
2018-02-24T11:58:43.241Z,93971.13
2018-02-24T12:01:11.253Z,93968.75
2018-02-24T12:03:39.348Z,93960.81
2018-02-24T12:06:07.410Z,93966.20
2018-02-24T12:08:36.081Z,93962.59
2018-02-24T12:11:03.869Z,93955.39
2018-02-24T12:13:31.668Z,93955.16
2018-02-24T12:16:00.031Z,93955.28
2018-02-24T12:18:27.829Z,93951.68
2018-02-24T12:20:55.601Z,93935.63
2018-02-24T12:23:24.057Z,93940.97
2018-02-24T12:25:52.248Z,93943.73
2018-02-24T12:28:20.698Z,93942.65
2018-02-24T12:30:48.754Z,93942.88
2018-02-24T12:33:16.724Z,93931.95
2018-02-24T12:35:44.442Z,93931.08
2018-02-24T12:38:13.630Z,93924.24
2018-02-24T12:40:41.679Z,93937.17
2018-02-24T12:43:10.872Z,93920.98
2018-02-24T12:45:38.980Z,93922.33
2018-02-24T12:48:07.017Z,93919.23
2018-02-24T12:50:35.067Z,93915.36
2018-02-24T12:53:03.057Z,93919.53
2018-02-24T12:55:30.820Z,93918.03
2018-02-24T12:57:58.534Z,93905.81
2018-02-24T13:00:26.508Z,93912.62
2018-02-24T13:02:54.523Z,93910.72
2018-02-24T13:05:22.516Z,93915.09
2018-02-24T13:07:50.567Z,93917.56
2018-02-24T13:10:18.639Z,93932.71
2018-02-24T13:12:46.505Z,93924.47
2018-02-24T13:15:14.510Z,93925.49
2018-02-24T13:17:42.302Z,93915.87
2018-02-24T13:20:10.167Z,93917.98
2018-02-24T13:22:38.997Z,93922.22
2018-02-24T13:25:07.278Z,93916.84
2018-02-24T13:27:35.941Z,93915.30
2018-02-24T13:30:04.259Z,93915.84
2018-02-24T13:32:32.399Z,93901.23
2018-02-24T13:35:00.468Z,93908.30
2018-02-24T13:37:28.619Z,93908.09
2018-02-24T13:39:56.507Z,93914.42
2018-02-24T13:42:25.373Z,93907.04
2018-02-24T13:44:54.006Z,93916.16
2018-02-24T13:47:22.878Z,93922.19
2018-02-24T13:49:51.022Z,93914.46
2018-02-24T13:52:18.986Z,93914.39
2018-02-24T13:54:47.109Z,93912.62
2018-02-24T13:57:15.213Z,93905.63
2018-02-24T13:59:43.251Z,93909.14
2018-02-24T14:02:11.324Z,93909.95
2018-02-24T14:04:39.387Z,93908.19
2018-02-24T14:07:07.470Z,93906.71
2018-02-24T14:09:35.644Z,93907.52
2018-02-24T14:12:05.121Z,93912.70
2018-02-24T14:14:33.166Z,93915.08
2018-02-24T14:17:01.672Z,93912.53
2018-02-24T14:19:29.652Z,93917.30
2018-02-24T14:21:58.416Z,93913.09
2018-02-24T14:24:27.728Z,93925.05
2018-02-24T14:26:55.845Z,93918.27
2018-02-24T14:29:23.989Z,93916.45
2018-02-24T14:31:53.732Z,93925.27
2018-02-24T14:34:21.746Z,93922.95
2018-02-24T14:36:49.858Z,93920.63
2018-02-24T14:39:17.566Z,93913.08
2018-02-24T14:41:45.347Z,93920.21
2018-02-24T14:44:13.107Z,93921.36
2018-02-24T14:46:41.226Z,93923.85
2018-02-24T14:49:10.848Z,93934.95
2018-02-24T14:51:39.961Z,93940.55
2018-02-24T14:54:08.308Z,93934.64
2018-02-24T14:56:36.405Z,93938.92
2018-02-24T14:59:04.439Z,93937.34
2018-02-24T15:01:32.267Z,93932.41
2018-02-24T15:03:59.998Z,93938.91
2018-02-24T15:06:28.057Z,93938.27
2018-02-24T15:08:56.210Z,93936.95
2018-02-24T15:11:24.300Z,93936.69
2018-02-24T15:13:53.170Z,93941.61
2018-02-24T15:16:21.138Z,93951.08
2018-02-24T15:18:49.228Z,93956.64
2018-02-24T15:21:17.406Z,93967.88
2018-02-24T15:23:45.387Z,93965.09
2018-02-24T15:26:14.249Z,93967.50
2018-02-24T15:28:42.593Z,93970.08
2018-02-24T15:31:11.410Z,93963.58
2018-02-24T15:33:39.478Z,93969.54
2018-02-24T15:36:08.243Z,93974.32
2018-02-24T15:38:36.266Z,93974.24
2018-02-24T15:41:04.335Z,93995.22
2018-02-24T15:43:32.212Z,93985.09
2018-02-24T15:45:59.940Z,93991.11
2018-02-24T15:48:27.735Z,93991.17
2018-02-24T15:50:55.444Z,93991.17
2018-02-24T15:53:24.391Z,93992.12
2018-02-24T15:55:52.275Z,93996.94
2018-02-24T15:58:20.038Z,93998.03
2018-02-24T16:00:47.816Z,94002.20
2018-02-24T16:03:15.629Z,94006.25
2018-02-24T16:05:43.344Z,94007.46
2018-02-24T16:08:11.121Z,94015.50
2018-02-24T16:10:39.011Z,94014.07
2018-02-24T16:13:06.814Z,94030.50
2018-02-24T16:15:34.602Z,94033.03
2018-02-24T16:18:02.380Z,94037.69
2018-02-24T16:20:30.091Z,94047.22
2018-02-24T16:22:57.964Z,94054.52
2018-02-24T16:25:25.775Z,94055.78
2018-02-24T16:27:53.747Z,94052.37
2018-02-24T16:30:22.382Z,94073.38
2018-02-24T16:32:53.012Z,94077.78
2018-02-24T16:35:21.799Z,94071.20
2018-02-24T16:37:50.707Z,94081.72
2018-02-24T16:40:18.585Z,94081.80
2018-02-24T16:42:46.751Z,94089.67
2018-02-24T16:45:14.863Z,94087.60
2018-02-24T16:47:42.761Z,94100.09
2018-02-24T16:50:10.742Z,94110.56
2018-02-24T16:52:38.794Z,94112.73
2018-02-24T16:55:07.215Z,94117.87
2018-02-24T16:57:35.385Z,94126.30
2018-02-24T17:00:03.397Z,94131.01
2018-02-24T17:02:31.405Z,94123.84
2018-02-24T17:04:59.113Z,94134.18
2018-02-24T17:07:27.063Z,94133.63
2018-02-24T17:09:57.404Z,94151.90
2018-02-24T17:12:25.426Z,94157.18
2018-02-24T17:14:53.517Z,94162.95
2018-02-24T17:17:22.423Z,94176.42
2018-02-24T17:19:52.139Z,94180.31
2018-02-24T17:22:21.036Z,94174.66
2018-02-24T17:24:49.564Z,94176.36
2018-02-24T17:27:17.883Z,94187.68
2018-02-24T17:29:47.990Z,94177.98
2018-02-24T17:32:16.156Z,94184.00
2018-02-24T17:34:45.102Z,94189.55
2018-02-24T17:37:17.253Z,94179.25
2018-02-24T17:39:46.433Z,94194.92
2018-02-24T17:42:14.605Z,94195.45
2018-02-24T17:44:50.667Z,94201.37
2018-02-24T17:47:19.716Z,94210.59
2018-02-24T17:49:50.396Z,94206.95
2018-02-24T17:52:19.513Z,94217.53
2018-02-24T17:54:49.531Z,94214.38
2018-02-24T17:57:22.454Z,94218.03
2018-02-24T17:59:50.308Z,94215.52
2018-02-24T18:02:18.158Z,94213.77
2018-02-24T18:04:46.098Z,94214.70
2018-02-24T18:07:13.926Z,94220.28
2018-02-24T18:09:41.732Z,94217.52
2018-02-24T18:12:11.100Z,94221.24
2018-02-24T18:14:41.057Z,94232.14
2018-02-24T18:17:14.302Z,94222.11
2018-02-24T18:19:51.143Z,94233.28
2018-02-24T18:22:20.628Z,94231.68
2018-02-24T18:25:04.804Z,94233.22
2018-02-24T18:42:39.306Z,94248.47
2018-02-24T18:45:14.592Z,94249.93
2018-02-24T18:54:22.688Z,94254.39
2018-02-24T19:09:42.337Z,94284.93
2018-02-24T19:12:11.823Z,94287.41
2018-02-24T19:14:39.742Z,94286.84
2018-02-24T19:17:07.653Z,94283.03
2018-02-24T19:19:35.546Z,94290.14
2018-02-24T19:22:12.127Z,94287.34
2018-02-24T19:24:41.069Z,94284.92
2018-02-24T19:27:08.905Z,94285.52
2018-02-24T19:29:36.792Z,94293.36
2018-02-24T19:32:05.561Z,94284.13
2018-02-24T19:34:34.042Z,94285.86
2018-02-24T19:37:01.794Z,94290.68
2018-02-24T19:39:30.911Z,94283.27
2018-02-24T19:45:29.194Z,94282.19
2018-02-24T19:47:57.022Z,94283.80
2018-02-24T19:50:28.823Z,94294.16
2018-02-24T19:52:57.610Z,94290.63
2018-02-24T19:55:26.646Z,94295.50
2018-02-24T19:58:20.757Z,94291.34
2018-02-24T20:00:56.784Z,94285.39
2018-02-24T20:06:15.649Z,94291.52
2018-02-24T20:11:50.114Z,94288.73
2018-02-24T20:14:18.067Z,94294.91
2018-02-24T20:16:51.896Z,94296.83
2018-02-24T20:19:19.726Z,94302.05
2018-02-24T20:21:50.332Z,94299.82
2018-02-24T20:24:25.000Z,94298.48
2018-02-24T20:27:02.430Z,94307.03
2018-02-24T20:29:30.994Z,94310.78
2018-02-24T20:32:01.421Z,94306.17
2018-02-24T20:34:30.427Z,94305.38
2018-02-24T20:36:58.240Z,94309.25
2018-02-24T20:39:27.255Z,94316.73
2018-02-24T20:42:01.987Z,94301.83
2018-02-24T20:44:32.004Z,94318.01
2018-02-24T20:47:04.168Z,94312.95
2018-02-24T20:49:32.160Z,94317.66
2018-02-24T20:52:00.034Z,94321.30
2018-02-24T20:54:31.214Z,94320.59
2018-02-24T20:57:15.332Z,94312.66
2018-02-24T20:59:43.800Z,94321.30
2018-02-24T21:02:13.977Z,94322.06
2018-02-24T21:04:43.177Z,94329.95
2018-02-24T21:25:24.706Z,94352.16
2018-02-24T21:46:07.401Z,94368.31
